DAB weather

Daytona Beach International Airport
Daytona Beach, Florida, United States

Public forecast

Using degrees Fahrenheit for public forecast. Weather courtesy of forecast.io.

Current aviation weather report (METAR) for Daytona Beach International Airport

Retrieved 2019/11/15 00:53 UTC (34 minutes ago):

KDAB 150053Z 01003KT 10SM FEW044 BKN080 OVC150 22/21 A3008 RMK AO2 SLP186 T02170206

Aviation forecast (TAF) for Daytona Beach International Airport

Retrieved 2019-11-15 00:43 UTC (44 minutes ago):

TAF KDAB 142338Z 1500/1524 07005KT P6SM SCT030 BKN045 OVC100 FM150700 11004KT P6SM VCSH SCT020 BKN040 OVC080 TEMPO 1508/1512 3SM -RA BR BKN020 OVC040 FM151200 18005KT 5SM -RA BR SCT015 BKN020 OVC030 FM151600 23008KT P6SM VCSH SCT009 BKN025 OVC040 FM151900 30008KT P6SM VCSH SCT012 BKN025 OVC040